• Join FlightAware (Why Join?)
  • Login
  • US Flag 
04:45AM EDT


 

Airport Tracker/Info


-or-


 

Live Flight TrackerFlight Track Log ✈ N53KV ✈ 01-May-2013 ✈ KJWN - KRPD

Flight Track Log - Related Links

Times and Time Zones

All times are in EDT time to prevent confusion due to time zone crossing. See the N53KV flight status page for this flight to view local times or setup timezone preferences in your user account.

Time Position Orientation Groundspeed Altitude Reporting Facility
EDT Latitude Longitude Course Direction KTS MPH feet Rate Location/Type
05:45PM 36.2000 -86.8833 15° North 132 152 800  Level Nashville TRACON
05:46PM 36.2500 -86.8667 15° North 227 261 2,200 2,400 Climbing Nashville TRACON
05:47PM 36.3167 -86.8500 11° North 253 291 5,500 3,360 Climbing Nashville TRACON
05:48PM 36.3325 -86.9383 283° West 234 269 9,000 2,940 Climbing Memphis Center
05:49PM 36.3450 -87.0228 280° West 240 276 11,500 2,520 Climbing Memphis Center
05:50PM 36.3744 -87.1067 294° West 263 303 14,100 2,520 Climbing Memphis Center
05:51PM 36.4142 -87.1903 301° West 269 310 16,600 2,400 Climbing Memphis Center
05:52PM 36.4494 -87.2664 300° West 269 310 18,900 2,160 Climbing Memphis Center
05:53PM 36.4803 -87.3372 298° West 259 298 21,000 2,100 Climbing Memphis Center
05:54PM 36.5153 -87.4058 302° West 254 292 23,100 1,800 Climbing Memphis Center
05:55PM 36.5628 -87.4739 311° West 254 292 24,600 1,500 Climbing Memphis Center
05:56PM 36.6381 -87.4867 352° North 243 280 26,100 1,500 Climbing Memphis Center
05:57PM 36.7097 -87.5178 341° North 270 311 27,700 1,500 Climbing Memphis Center
05:58PM 36.7897 -87.5486 343° North 270 311 29,200 1,320 Climbing Memphis Center
05:59PM 36.8611 -87.5797 341° North 270 311 30,400 1,140 Climbing Memphis Center
06:00PM 36.9369 -87.6108 342° North 270 311 31,500 1,020 Climbing Memphis Center
06:01PM 37.0147 -87.6444 341° North 283 326 32,500 960 Climbing Memphis Center
06:02PM 37.0925 -87.6758 342° North 293 337 33,500 1,020 Climbing Memphis Center
06:03PM 37.1681 -87.7097 340° North 293 337 34,600 780 Climbing Memphis Center
06:05PM 37.3242 -87.7750 342° North 294 338 36,000 420 Climbing Indianapolis Center
06:06PM 37.4114 -87.8119 341° North 316 364 36,000  Level Indianapolis Center
06:07PM 37.5008 -87.8536 340° North 334 384 36,000  Level Indianapolis Center
06:08PM 37.5953 -87.8947 341° North 353 406 36,000  Level Indianapolis Center
06:09PM 37.6917 -87.9383 340° North 362 417 36,000  Level Indianapolis Center
06:10PM 37.7889 -87.9803 341° North 360 414 36,100 600 Climbing Indianapolis Center
06:12PM 37.8811 -88.0219 340° North 349 402 37,300 900 Climbing Indianapolis Center
06:13PM 37.9847 -88.0669 341° North 333 383 38,000 300 Climbing Kansas City Center
06:14PM 38.0742 -88.1081 340° North 334 384 38,000  Level Kansas City Center
06:15PM 38.1678 -88.1486 341° North 345 397 38,000  Level Kansas City Center
06:16PM 38.2636 -88.1911 341° North 355 409 38,000  Level Kansas City Center
06:17PM 38.3600 -88.2344 341° North 361 415 38,000  Level Kansas City Center
06:18PM 38.4583 -88.2778 341° North 366 421 38,000  Level Kansas City Center
06:19PM 38.5567 -88.3231 340° North 370 426 38,000  Level Kansas City Center
06:20PM 38.6742 -88.3758 341° North 371 427 38,000  Level Kansas City Center
06:21PM 38.7711 -88.4194 341° North 369 425 38,000  Level Kansas City Center
06:22PM 38.8686 -88.4625 341° North 368 423 38,000  Level Kansas City Center
06:23PM 38.9667 -88.5072 340° North 369 425 38,000  Level Kansas City Center
06:24PM 39.0650 -88.5506 341° North 371 427 38,000  Level Kansas City Center
06:25PM 39.1622 -88.5967 340° North 371 427 38,000  Level Kansas City Center
06:26PM 39.2725 -88.6464 341° North 367 422 38,000  Level Kansas City Center
06:27PM 39.3683 -88.6911 340° North 366 421 38,000  Level Kansas City Center
06:28PM 39.4564 -88.7306 341° North 369 425 38,000  Level Kansas City Center
06:29PM 39.5708 -88.7831 341° North 367 422 38,000  Level Kansas City Center
06:30PM 39.6664 -88.8286 340° North 365 420 38,000  Level Kansas City Center
06:31PM 39.7622 -88.8714 341° North 365 420 38,000  Level Kansas City Center
06:32PM 39.8581 -88.9153 341° North 365 420 38,000  Level Kansas City Center
06:33PM 39.9536 -88.9617 340° North 366 421 38,000  Level Kansas City Center
06:34PM 40.0494 -89.0067 340° North 365 420 38,000  Level Kansas City Center
06:35PM 40.1639 -89.0603 340° North 365 420 38,000  Level Kansas City Center
06:36PM 40.2606 -89.1056 340° North 367 422 38,000  Level Kansas City Center
06:37PM 40.3556 -89.1519 340° North 366 421 38,000  Level Chicago Center
06:38PM 40.4536 -89.1978 340° North 372 428 38,000  Level Chicago Center
06:39PM 40.5503 -89.2444 340° North 372 428 38,000  Level Chicago Center
06:41PM 40.6478 -89.2911 340° North 374 430 38,000  Level Chicago Center
06:42PM 40.7658 -89.3478 340° North 378 435 38,000  Level Chicago Center
06:43PM 40.8633 -89.3944 340° North 377 434 38,000  Level Chicago Center
06:44PM 40.9611 -89.4417 340° North 377 434 38,000  Level Chicago Center
06:45PM 41.0597 -89.4881 340° North 378 435 38,000  Level Chicago Center
06:46PM 41.1781 -89.5450 340° North 379 436 38,000  Level Chicago Center
06:47PM 41.2772 -89.5936 340° North 380 437 38,000  Level Chicago Center
06:48PM 41.3758 -89.6428 339° North 381 438 38,000  Level Chicago Center
06:49PM 41.4756 -89.6914 340° North 382 440 38,000  Level Chicago Center
06:50PM 41.5758 -89.7403 340° North 382 440 38,000  Level Chicago Center
06:51PM 41.6753 -89.7906 339° North 384 442 38,000  Level Chicago Center
06:52PM 41.7956 -89.8506 340° North 383 441 38,000  Level Chicago Center
06:53PM 41.8925 -89.8992 340° North 373 429 38,000  Level Chicago Center
06:54PM 41.9992 -89.9494 341° North 389 448 38,000  Level Chicago Center
06:55PM 42.0969 -90.0031 338° Northwest 387 445 38,000  Level Chicago Center
06:56PM 42.1975 -90.0531 340° North 389 448 38,000  Level Chicago Center
06:57PM 42.2956 -90.1036 339° North 384 442 38,000  Level Chicago Center
06:58PM 42.4114 -90.1625 339° North 375 432 38,000  Level Chicago Center
06:59PM 42.5111 -90.2117 340° North 381 438 38,000  Level Chicago Center
07:00PM 42.6092 -90.2622 339° North 382 440 38,000 -120 Level Chicago Center
07:01PM 42.7064 -90.3117 340° North 379 436 37,800 -600 Descending Chicago Center
07:02PM 42.8272 -90.3739 339° North 386 444 36,800 -960 Descending Chicago Center
07:03PM 42.9333 -90.4283 339° North 404 465 35,900 -840 Descending Chicago Center
07:04PM 43.0386 -90.4825 339° North 409 471 35,100 -780 Descending Chicago Center
07:05PM 43.1417 -90.5361 339° North 404 465 34,300 -840 Descending Chicago Center
07:06PM 43.2436 -90.5892 339° North 400 460 33,400 -900 Descending Chicago Center
07:08PM 43.3906 -90.6658 339° North 406 467 32,300 -660 Descending Minneapolis Center
07:09PM 43.4958 -90.7206 339° North 408 470 32,000 -180 Descending Minneapolis Center
07:10PM 43.5956 -90.7728 339° North 394 453 32,000  Level Minneapolis Center
07:11PM 43.6950 -90.8250 339° North 389 448 32,000 -540 Level Minneapolis Center
07:12PM 43.7939 -90.8781 339° North 385 443 31,000 -1,500 Descending Minneapolis Center
07:13PM 43.9194 -90.9442 339° North 404 465 28,900 -1,860 Descending Minneapolis Center
07:14PM 44.0244 -91.0022 338° Northwest 409 471 27,200 -1,680 Descending Minneapolis Center
07:15PM 44.1258 -91.0558 339° North 400 460 25,500 -1,740 Descending Minneapolis Center
07:16PM 44.2231 -91.1086 339° North 386 444 23,700 -1,800 Descending Minneapolis Center
07:17PM 44.3281 -91.1650 339° North 375 432 21,900 -1,800 Descending Minneapolis Center
07:18PM 44.4217 -91.2175 338° Northwest 368 423 20,100 -1,860 Descending Minneapolis Center
07:19PM 44.5089 -91.3033 325° Northwest 350 403 18,100 -1,680 Descending Minneapolis Center
07:20PM 44.5933 -91.3706 330° Northwest 335 386 16,700 -1,560 Descending Minneapolis Center
07:21PM 44.6733 -91.4317 331° Northwest 315 362 14,900 -1,800 Descending Minneapolis Center
07:22PM 44.7450 -91.4944 328° Northwest 293 337 13,100 -1,800 Descending Minneapolis Center
07:23PM 44.8169 -91.5578 328° Northwest 291 335 11,200 -1,800 Descending Minneapolis Center
07:24PM 44.8792 -91.6161 326° Northwest 283 326 9,500 -1,560 Descending Minneapolis Center
07:25PM 44.9358 -91.6700 326° Northwest 276 318 8,000 -1,800 Descending Minneapolis Center
07:26PM 45.0006 -91.7528 318° Northwest 270 311 5,900 -1,920 Descending Minneapolis Center
07:27PM 45.0517 -91.8144 320° Northwest 260 299 4,100 -1,020 Descending Minneapolis Center
07:28PM 45.1006 -91.8433 337° Northwest 223 257 3,900 -120 Descending Minneapolis Center
07:29PM 45.1442 -91.8500 354° North 191 220 3,900  Level Minneapolis Center
07:30PM 45.1872 -91.8372 12° North 169 194 3,900  Level Minneapolis Center
07:31PM 45.2283 -91.8264 11° North 160 184 3,900  Level Minneapolis Center
07:32PM 45.2781 -91.8117 12° North 155 178 3,900 -360 Level Minneapolis Center
07:33PM 45.3125 -91.8022 11° North 145 167 3,200 -420 Descending Minneapolis Center
07:34PM 45.3442 -91.7961 North 140 161 3,100 -120 Descending Minneapolis Center
07:36PM 45.4167 -91.7667 North  Level FlightAware Approximate
07:43PM 45.4201 -91.7733 North  Level Estimated
07:44PM 45.4167 -91.7667 North  Level FlightAware Approximate
07:45PM 45.4201 -91.7733 North  Level Estimated
07:46PM 45.4167 -91.7667 North  Level FlightAware Approximate
07:47PM 45.4201 -91.7733 North  Level Estimated
07:48PM 45.4167 -91.7667 North  Level FlightAware Approximate
07:49PM 45.4201 -91.7733 North  Level Estimated
07:50PM 45.4167 -91.7667 North  Level FlightAware Approximate